Time;durP1;ratioP1;P1;durP2;ratioP2;P2;SDS_P1;SDS_P2;PMS_P1;PMS_P2;Temp;Humidity;BMP_temperature;BMP_pressure;BME280_temperature;BME280_humidity;BME280_pressure;Samples;Min_cycle;Max_cycle;Signal;HPM_P1;HPM_P2
2021/01/07 00:00:30;;;;;;;15.15;11.57;;;3.90;89.30;;;;;;5027547;28;20033;-57
2021/01/07 00:02:56;;;;;;;16.42;11.55;;;3.90;89.40;;;;;;5032968;28;20017;-57
2021/01/07 00:05:21;;;;;;;15.55;11.38;;;3.90;89.40;;;;;;5032927;28;20022;-56
2021/01/07 00:07:47;;;;;;;17.58;11.98;;;3.90;89.40;;;;;;5056653;28;20394;-57
2021/01/07 00:10:12;;;;;;;15.05;12.40;;;3.90;89.40;;;;;;5042043;28;20044;-59
2021/01/07 00:12:38;;;;;;;16.42;11.50;;;3.90;89.40;;;;;;5064310;28;20029;-57
2021/01/07 00:15:05;;;;;;;16.20;12.30;;;3.90;89.40;;;;;;5039725;28;20594;-57
2021/01/07 00:17:30;;;;;;;17.90;11.80;;;3.90;89.40;;;;;;5021594;28;20084;-57
2021/01/07 00:19:56;;;;;;;16.08;11.98;;;3.90;89.50;;;;;;5049659;28;20496;-58
2021/01/07 00:22:21;;;;;;;17.60;12.20;;;3.90;89.50;;;;;;5049261;28;20051;-57
2021/01/07 00:24:47;;;;;;;17.05;11.20;;;3.90;89.50;;;;;;5050202;28;20029;-57
2021/01/07 00:27:12;;;;;;;15.25;11.25;;;3.90;89.60;;;;;;5037171;28;20124;-56
2021/01/07 00:29:38;;;;;;;15.73;11.82;;;3.90;89.50;;;;;;5050273;28;20060;-57
2021/01/07 00:32:04;;;;;;;17.92;12.60;;;3.90;89.50;;;;;;5037143;28;20033;-58
2021/01/07 00:34:29;;;;;;;16.45;12.18;;;3.90;89.60;;;;;;5048461;28;20401;-58
2021/01/07 00:36:56;;;;;;;14.43;11.18;;;3.90;89.50;;;;;;5044657;28;20045;-57
2021/01/07 00:39:21;;;;;;;19.33;12.60;;;3.90;89.40;;;;;;5042560;28;20029;-57
2021/01/07 00:41:52;;;;;;;16.77;11.32;;;3.90;89.50;;;;;;5030153;28;20143;-57
2021/01/07 00:44:17;;;;;;;16.20;11.35;;;3.90;89.50;;;;;;5047965;28;20071;-56
2021/01/07 00:46:43;;;;;;;16.30;11.60;;;3.90;89.50;;;;;;5047978;28;20041;-57
2021/01/07 00:49:08;;;;;;;17.40;11.70;;;3.90;89.50;;;;;;5037919;28;20126;-58
2021/01/07 00:51:34;;;;;;;18.75;12.55;;;3.90;89.50;;;;;;5031123;28;20493;-57
2021/01/07 00:53:59;;;;;;;15.80;11.63;;;3.90;89.50;;;;;;5041877;28;20056;-59
2021/01/07 00:56:25;;;;;;;19.52;12.68;;;3.90;89.50;;;;;;5050972;28;20025;-57
2021/01/07 00:58:50;;;;;;;18.15;12.07;;;3.90;89.40;;;;;;5047879;28;20467;-58
2021/01/07 01:01:16;;;;;;;16.50;11.75;;;3.90;89.50;;;;;;5043171;28;20033;-59
2021/01/07 01:03:41;;;;;;;18.48;12.07;;;3.90;89.60;;;;;;5054583;28;20071;-58
2021/01/07 01:06:07;;;;;;;18.15;11.73;;;3.90;89.50;;;;;;5053887;28;20029;-58
2021/01/07 01:08:33;;;;;;;18.48;12.05;;;3.90;89.50;;;;;;5045564;28;20014;-56
2021/01/07 01:10:59;;;;;;;15.02;10.70;;;3.90;89.50;;;;;;5048140;28;20032;-57
2021/01/07 01:13:24;;;;;;;15.77;11.40;;;3.90;89.50;;;;;;5045356;28;20032;-57
2021/01/07 01:15:50;;;;;;;16.52;11.63;;;3.90;89.50;;;;;;5046185;28;20323;-56
2021/01/07 01:18:15;;;;;;;16.67;11.32;;;3.90;89.50;;;;;;5029123;28;20091;-57
2021/01/07 01:20:41;;;;;;;17.23;11.93;;;3.90;89.60;;;;;;5047004;28;20025;-56
2021/01/07 01:23:06;;;;;;;17.65;12.45;;;3.90;89.50;;;;;;5031013;28;20105;-57
2021/01/07 01:25:32;;;;;;;17.20;11.25;;;3.90;89.60;;;;;;5034584;28;20815;-56
2021/01/07 01:27:58;;;;;;;15.15;11.70;;;3.90;89.50;;;;;;5036110;28;20116;-58
2021/01/07 01:30:23;;;;;;;15.88;11.00;;;3.90;89.50;;;;;;5044055;28;20491;-57
2021/01/07 01:32:48;;;;;;;15.32;12.00;;;3.90;89.50;;;;;;5017976;28;20033;-57
2021/01/07 01:35:14;;;;;;;15.50;11.90;;;3.90;89.50;;;;;;5018547;28;20495;-58
2021/01/07 01:37:40;;;;;;;15.35;11.88;;;3.90;89.50;;;;;;5038226;28;20033;-56
2021/01/07 01:40:10;;;;;;;15.23;11.35;;;3.90;89.50;;;;;;5036553;28;20468;-57
2021/01/07 01:42:35;;;;;;;18.23;11.82;;;3.90;89.60;;;;;;5036653;28;20124;-59
2021/01/07 01:45:01;;;;;;;16.50;11.45;;;3.90;89.60;;;;;;5020096;28;20029;-56
2021/01/07 01:47:26;;;;;;;14.65;11.50;;;3.90;89.60;;;;;;5017686;28;20385;-57
2021/01/07 01:49:53;;;;;;;17.23;12.10;;;3.90;89.50;;;;;;5020146;28;20385;-58
2021/01/07 01:52:23;;;;;;;15.75;11.38;;;3.90;89.50;;;;;;5036877;28;20327;-58
2021/01/07 01:54:48;;;;;;;15.48;11.95;;;3.90;89.60;;;;;;5036065;28;20063;-58
2021/01/07 01:57:15;;;;;;;15.43;11.75;;;3.90;89.60;;;;;;5020289;28;20509;-57
2021/01/07 01:59:41;;;;;;;15.57;11.32;;;3.90;89.50;;;;;;5021001;28;20033;-58
2021/01/07 02:02:26;;;;;;;15.25;12.15;;;3.90;89.50;;;;;;5016261;28;20489;-56
2021/01/07 02:04:52;;;;;;;;;;;3.90;89.50;;;;;;5034524;28;20036;-58
2021/01/07 02:07:22;;;;;;;;;;;3.90;89.50;;;;;;5016820;28;19995;-58
2021/01/07 02:09:47;;;;;;;14.98;11.05;;;3.90;89.50;;;;;;5038592;28;19905;-58
2021/01/07 02:12:13;;;;;;;17.35;12.50;;;3.90;89.50;;;;;;5032606;28;20098;-58
2021/01/07 02:14:42;;;;;;;15.00;11.13;;;3.90;89.50;;;;;;5026088;28;20025;-57
2021/01/07 02:17:08;;;;;;;17.33;12.10;;;3.90;89.50;;;;;;5041832;28;20029;-57
2021/01/07 02:19:33;;;;;;;14.85;11.45;;;3.90;89.60;;;;;;5043126;28;20033;-59
2021/01/07 02:21:59;;;;;;;16.25;10.70;;;3.90;89.70;;;;;;5035999;28;20036;-57
2021/01/07 02:24:25;;;;;;;16.35;11.52;;;3.90;89.70;;;;;;5048097;28;20064;-57
2021/01/07 02:26:51;;;;;;;16.65;10.95;;;3.80;89.70;;;;;;5047210;28;20468;-58
2021/01/07 02:29:16;;;;;;;14.98;11.43;;;3.80;89.70;;;;;;5021941;28;20472;-58
2021/01/07 02:31:42;;;;;;;14.95;10.80;;;3.90;89.70;;;;;;5026215;28;20511;-56
2021/01/07 02:34:07;;;;;;;16.13;11.75;;;3.90;89.70;;;;;;5029025;28;20041;-56
2021/01/07 02:36:33;;;;;;;15.25;11.60;;;3.80;90.10;;;;;;5042179;28;20141;-58
2021/01/07 02:38:58;;;;;;;15.23;10.85;;;3.90;89.70;;;;;;5039154;28;20072;-58
2021/01/07 02:41:24;;;;;;;17.35;12.05;;;3.90;89.70;;;;;;5020939;28;20034;-58
2021/01/07 02:43:49;;;;;;;15.50;11.18;;;3.90;89.70;;;;;;5020620;28;20830;-57
2021/01/07 02:46:15;;;;;;;18.05;11.13;;;3.90;89.70;;;;;;5030409;28;20041;-58
2021/01/07 02:48:40;;;;;;;13.98;10.80;;;3.90;89.70;;;;;;5026507;28;20488;-57
2021/01/07 02:51:06;;;;;;;14.48;10.52;;;3.90;89.60;;;;;;5032980;28;20022;-57
2021/01/07 02:53:31;;;;;;;17.48;11.30;;;3.90;89.60;;;;;;5037945;28;20424;-58
2021/01/07 02:55:57;;;;;;;14.02;10.85;;;3.90;89.60;;;;;;5033275;28;20034;-57
2021/01/07 02:58:22;;;;;;;14.63;10.88;;;3.80;89.50;;;;;;5019021;28;20075;-56
2021/01/07 03:00:48;;;;;;;14.35;10.90;;;3.90;89.70;;;;;;5040736;28;20046;-58
2021/01/07 03:03:13;;;;;;;16.77;11.90;;;3.90;89.70;;;;;;5045157;28;20069;-59
2021/01/07 03:05:39;;;;;;;14.75;10.70;;;3.90;89.60;;;;;;5055800;28;20519;-57
2021/01/07 03:08:05;;;;;;;17.42;12.43;;;3.90;89.60;;;;;;5046935;28;20056;-58
2021/01/07 03:10:30;;;;;;;15.52;11.40;;;3.90;89.70;;;;;;5032266;28;20032;-56
2021/01/07 03:12:56;;;;;;;13.02;9.93;;;3.90;90.10;;;;;;5039539;28;20041;-58
2021/01/07 03:15:21;;;;;;;16.58;11.30;;;3.90;89.80;;;;;;5049483;28;20044;-57
2021/01/07 03:17:47;;;;;;;16.63;11.82;;;3.90;89.70;;;;;;5042015;28;20021;-57
2021/01/07 03:20:13;;;;;;;16.10;11.48;;;3.90;89.80;;;;;;5056129;28;20025;-56
2021/01/07 03:22:40;;;;;;;13.90;10.18;;;3.80;89.70;;;;;;5032163;28;20392;-58
2021/01/07 03:25:07;;;;;;;14.13;11.20;;;3.90;89.80;;;;;;5036691;28;20033;-58
2021/01/07 03:27:32;;;;;;;14.75;10.95;;;3.90;90.10;;;;;;5039725;28;20017;-59
2021/01/07 03:29:58;;;;;;;16.40;11.18;;;3.90;89.70;;;;;;5049914;28;20028;-56
2021/01/07 03:32:24;;;;;;;15.68;11.77;;;3.90;89.80;;;;;;5050738;28;20112;-57
2021/01/07 03:34:53;;;;;;;14.23;10.32;;;3.90;89.80;;;;;;5049835;28;20369;-58
2021/01/07 03:37:19;;;;;;;13.48;10.45;;;3.90;89.80;;;;;;5044995;28;20218;-58
2021/01/07 03:39:44;;;;;;;13.85;10.32;;;3.90;89.80;;;;;;5035441;28;20117;-59
2021/01/07 03:42:10;;;;;;;14.02;10.80;;;3.90;89.80;;;;;;5040443;28;20095;-57
2021/01/07 03:44:36;;;;;;;15.70;11.98;;;3.90;89.80;;;;;;5044159;28;20064;-58
2021/01/07 03:47:01;;;;;;;15.32;11.13;;;3.90;89.80;;;;;;5050645;28;20078;-57
2021/01/07 03:49:27;;;;;;;13.52;10.82;;;3.90;89.80;;;;;;5049030;28;20082;-58
2021/01/07 03:51:52;;;;;;;13.70;10.95;;;3.90;89.80;;;;;;5049090;28;20069;-56
2021/01/07 03:54:18;;;;;;;14.43;10.55;;;3.90;89.80;;;;;;5048918;28;20113;-58
2021/01/07 03:56:43;;;;;;;13.90;10.50;;;3.90;89.70;;;;;;5050787;28;20510;-57
2021/01/07 03:59:09;;;;;;;12.57;10.20;;;3.90;89.70;;;;;;5050007;28;20551;-56
2021/01/07 04:01:34;;;;;;;15.02;11.13;;;3.90;89.70;;;;;;5056639;28;20039;-57
2021/01/07 04:04:00;;;;;;;17.65;11.80;;;3.90;89.70;;;;;;5032824;28;20021;-57
2021/01/07 04:06:25;;;;;;;16.48;11.30;;;3.90;89.90;;;;;;5044087;28;20029;-58
2021/01/07 04:08:51;;;;;;;15.00;10.95;;;3.80;89.60;;;;;;5040414;28;20021;-58
2021/01/07 04:11:16;;;;;;;15.15;11.30;;;3.90;89.80;;;;;;5047952;28;20362;-57
2021/01/07 04:13:42;;;;;;;15.75;12.05;;;3.80;89.70;;;;;;5039986;28;20022;-57
2021/01/07 04:16:07;;;;;;;15.95;11.95;;;3.90;89.80;;;;;;5044483;28;20048;-57
2021/01/07 04:18:33;;;;;;;15.02;10.90;;;3.90;89.80;;;;;;5028648;28;20049;-56
2021/01/07 04:20:58;;;;;;;13.82;10.65;;;3.80;89.80;;;;;;5044047;28;20028;-58
2021/01/07 04:23:24;;;;;;;15.13;11.63;;;3.80;89.90;;;;;;5039531;28;20037;-56
2021/01/07 04:25:49;;;;;;;13.95;10.75;;;3.90;89.90;;;;;;5043994;28;20050;-58
2021/01/07 04:28:15;;;;;;;16.08;10.82;;;3.90;89.90;;;;;;5040201;28;20065;-56
2021/01/07 04:30:40;;;;;;;14.80;11.10;;;3.80;89.80;;;;;;5024193;28;20029;-58
2021/01/07 04:33:06;;;;;;;13.20;10.63;;;3.90;89.80;;;;;;5045695;28;20116;-58
2021/01/07 04:35:31;;;;;;;14.18;10.77;;;3.80;90.20;;;;;;5044905;28;20472;-59
2021/01/07 04:37:57;;;;;;;15.40;11.57;;;3.90;89.90;;;;;;5042693;28;20099;-57
2021/01/07 04:40:22;;;;;;;13.82;10.98;;;3.90;89.90;;;;;;5042636;28;20503;-58
2021/01/07 04:42:48;;;;;;;15.48;11.05;;;3.90;89.80;;;;;;5038194;28;20558;-58
2021/01/07 04:45:13;;;;;;;14.05;10.50;;;3.90;89.80;;;;;;5023456;28;20446;-62
2021/01/07 04:47:40;;;;;;;14.65;10.77;;;3.90;89.90;;;;;;5038829;28;20340;-58
2021/01/07 04:50:06;;;;;;;17.30;11.25;;;3.90;89.90;;;;;;5042612;28;20131;-58
2021/01/07 04:52:31;;;;;;;16.35;12.30;;;3.80;89.90;;;;;;5041660;28;20523;-56
2021/01/07 04:54:57;;;;;;;13.25;10.68;;;3.80;89.90;;;;;;5030042;28;20178;-57
2021/01/07 04:57:22;;;;;;;16.08;11.18;;;3.80;89.90;;;;;;5017088;28;20405;-59
2021/01/07 04:59:48;;;;;;;14.32;11.40;;;3.80;89.70;;;;;;5023383;28;20017;-57
2021/01/07 05:02:16;;;;;;;16.77;11.60;;;3.80;89.80;;;;;;5036205;28;20392;-56
2021/01/07 05:04:49;;;;;;;14.80;10.60;;;3.90;90.00;;;;;;5021976;28;20037;-58
2021/01/07 05:07:16;;;;;;;13.02;10.15;;;3.80;89.90;;;;;;5018815;28;20165;-58
2021/01/07 05:09:41;;;;;;;14.48;10.88;;;3.80;89.90;;;;;;5037503;28;20029;-58
2021/01/07 05:12:07;;;;;;;14.45;10.45;;;3.90;90.00;;;;;;5010183;28;20044;-59
2021/01/07 05:14:41;;;;;;;15.35;11.23;;;3.90;90.00;;;;;;5041238;28;20024;-59
2021/01/07 05:17:09;;;;;;;15.70;11.07;;;3.90;90.00;;;;;;5036387;28;20036;-60
2021/01/07 05:19:36;;;;;;;14.60;11.02;;;3.80;89.80;;;;;;5053933;28;20056;-57
2021/01/07 05:22:01;;;;;;;14.38;11.15;;;3.90;90.00;;;;;;5040814;28;20031;-57
2021/01/07 05:24:27;;;;;;;14.23;10.77;;;3.80;89.90;;;;;;5044355;28;20037;-56
2021/01/07 05:26:52;;;;;;;14.38;11.20;;;3.90;89.90;;;;;;5028421;28;20026;-58
2021/01/07 05:29:18;;;;;;;13.93;10.80;;;3.90;89.80;;;;;;5023965;28;20017;-56
2021/01/07 05:31:50;;;;;;;14.57;10.80;;;3.90;90.00;;;;;;5025414;28;20430;-56
2021/01/07 05:34:15;;;;;;;16.10;11.48;;;3.90;90.00;;;;;;5036345;28;20409;-58
2021/01/07 05:36:41;;;;;;;16.25;11.63;;;3.90;90.00;;;;;;5042119;28;20033;-57
2021/01/07 05:39:06;;;;;;;14.57;11.27;;;3.80;90.00;;;;;;5034530;28;20033;-58
2021/01/07 05:41:32;;;;;;;15.20;11.27;;;3.80;89.90;;;;;;5028435;28;20053;-56
2021/01/07 05:44:02;;;;;;;15.20;11.05;;;3.80;89.90;;;;;;5021044;28;20038;-58
2021/01/07 05:46:32;;;;;;;14.32;10.40;;;3.90;89.90;;;;;;5026049;28;20025;-58
2021/01/07 05:48:57;;;;;;;13.07;10.27;;;3.80;89.90;;;;;;5034056;28;20255;-58
2021/01/07 05:51:25;;;;;;;14.48;10.48;;;3.80;89.90;;;;;;5045077;28;20032;-57
2021/01/07 05:53:55;;;;;;;14.27;10.38;;;3.80;89.90;;;;;;5027441;28;20441;-57
2021/01/07 05:56:21;;;;;;;15.30;11.43;;;3.80;89.90;;;;;;5041858;28;20033;-56
2021/01/07 05:58:50;;;;;;;12.80;10.38;;;3.80;89.80;;;;;;5034677;28;20408;-57
2021/01/07 06:01:16;;;;;;;14.00;10.48;;;3.80;89.90;;;;;;5037218;28;20112;-56
2021/01/07 06:03:47;;;;;;;12.75;9.45;;;3.90;89.90;;;;;;5019834;28;20164;-56
2021/01/07 06:06:16;;;;;;;15.15;11.55;;;3.80;89.80;;;;;;5023348;28;20465;-55
2021/01/07 06:08:50;;;;;;;12.82;10.75;;;3.80;89.80;;;;;;5020230;28;20032;-58
2021/01/07 06:11:16;;;;;;;14.13;10.90;;;3.80;89.90;;;;;;5039523;28;20377;-58
2021/01/07 06:13:43;;;;;;;14.43;10.85;;;3.80;89.90;;;;;;5044083;28;20029;-58
2021/01/07 06:16:16;;;;;;;14.30;10.63;;;3.80;89.90;;;;;;5039898;28;20094;-56
2021/01/07 06:18:42;;;;;;;13.77;10.35;;;3.80;89.90;;;;;;4995784;28;20112;-56
2021/01/07 06:21:08;;;;;;;13.00;10.77;;;3.90;90.00;;;;;;5019073;28;20155;-56
2021/01/07 06:23:41;;;;;;;14.50;10.50;;;3.90;89.90;;;;;;5045160;28;20025;-56
2021/01/07 06:26:28;;;;;;;13.75;10.30;;;3.80;89.80;;;;;;5021504;28;20037;-58
2021/01/07 06:29:00;;;;;;;14.23;10.88;;;3.80;89.80;;;;;;5020038;28;20116;-58
2021/01/07 06:31:33;;;;;;;14.77;11.07;;;3.80;90.10;;;;;;5043376;28;20105;-57
2021/01/07 06:33:58;;;;;;;13.27;10.48;;;3.80;89.80;;;;;;5047753;28;20049;-57
2021/01/07 06:36:41;;;;;;;13.07;10.65;;;3.90;89.90;;;;;;5034059;28;20075;-59
2021/01/07 06:39:07;;;;;;;15.38;10.95;;;3.90;90.00;;;;;;5044320;28;20037;-58
2021/01/07 06:41:33;;;;;;;15.05;10.85;;;3.80;89.80;;;;;;5023120;28;20029;-57
2021/01/07 06:43:58;;;;;;;14.25;10.88;;;3.80;89.90;;;;;;5037362;28;20447;-57
2021/01/07 06:46:37;;;;;;;14.80;11.32;;;3.80;89.90;;;;;;5026581;28;20503;-56
2021/01/07 06:49:22;;;;;;;14.52;11.07;;;3.80;89.80;;;;;;5046234;28;20074;-58
2021/01/07 06:51:52;;;;;;;15.20;11.27;;;3.80;89.80;;;;;;5032306;28;20419;-57
2021/01/07 06:54:17;;;;;;;13.32;10.30;;;3.80;89.90;;;;;;5040439;28;20029;-58
2021/01/07 06:56:43;;;;;;;13.55;10.07;;;3.80;89.90;;;;;;5029462;28;20415;-57
2021/01/07 06:59:08;;;;;;;12.85;10.45;;;3.80;89.90;;;;;;5016806;28;20024;-58
2021/01/07 07:01:34;;;;;;;14.43;11.40;;;3.80;89.90;;;;;;5014756;28;20500;-57
2021/01/07 07:04:02;;;;;;;14.57;10.68;;;3.80;89.90;;;;;;5015181;28;20041;-57
2021/01/07 07:06:28;;;;;;;13.70;10.77;;;3.80;90.00;;;;;;5046003;28;20100;-57
2021/01/07 07:08:53;;;;;;;11.85;9.65;;;3.80;89.90;;;;;;5017428;28;20124;-58
2021/01/07 07:11:32;;;;;;;13.95;10.40;;;3.80;89.90;;;;;;5012024;28;20055;-58
2021/01/07 07:13:59;;;;;;;12.27;10.07;;;3.80;90.00;;;;;;5041496;28;20028;-56
2021/01/07 07:16:24;;;;;;;14.85;10.45;;;3.80;90.00;;;;;;5036453;28;20226;-56
2021/01/07 07:18:54;;;;;;;14.75;10.65;;;3.80;90.00;;;;;;5032386;28;20208;-56
2021/01/07 07:21:22;;;;;;;13.98;10.77;;;3.80;90.00;;;;;;5018650;28;20128;-58
2021/01/07 07:23:47;;;;;;;12.93;10.07;;;3.80;90.00;;;;;;5037838;28;20496;-57
2021/01/07 07:26:15;;;;;;;14.18;10.52;;;3.80;90.00;;;;;;5020744;28;20036;-60
2021/01/07 07:28:44;;;;;;;13.98;11.02;;;3.80;90.00;;;;;;5051703;28;20024;-58
2021/01/07 07:31:10;;;;;;;14.60;11.02;;;3.90;90.00;;;;;;5039925;28;20029;-58
2021/01/07 07:33:36;;;;;;;15.88;10.77;;;3.90;90.00;;;;;;5032454;28;20099;-56
2021/01/07 07:36:03;;;;;;;13.73;11.23;;;3.80;89.90;;;;;;5037883;28;20032;-59
2021/01/07 07:38:33;;;;;;;12.73;10.25;;;3.90;90.00;;;;;;5040748;28;20033;-59
2021/01/07 07:41:00;;;;;;;12.50;10.00;;;3.90;89.90;;;;;;5050639;28;20316;-57
2021/01/07 07:43:26;;;;;;;13.10;10.50;;;3.90;90.00;;;;;;5041684;28;20029;-57
2021/01/07 07:45:52;;;;;;;15.00;11.05;;;3.80;90.00;;;;;;5019047;28;20072;-58
2021/01/07 07:48:21;;;;;;;13.45;10.25;;;3.90;90.10;;;;;;5042150;28;20037;-58
2021/01/07 07:50:46;;;;;;;13.38;10.57;;;3.90;90.00;;;;;;5016249;28;20026;-56
2021/01/07 07:53:13;;;;;;;16.05;10.70;;;3.90;89.90;;;;;;5047331;28;20029;-57
2021/01/07 07:55:39;;;;;;;13.52;10.02;;;3.90;90.00;;;;;;5032708;28;20307;-58
2021/01/07 07:58:09;;;;;;;16.70;10.73;;;3.90;90.00;;;;;;5021728;28;20036;-58
2021/01/07 08:00:34;;;;;;;15.73;10.48;;;3.90;90.00;;;;;;5033134;28;20026;-57
2021/01/07 08:03:00;;;;;;;18.42;11.27;;;3.90;90.00;;;;;;5045185;28;20118;-59
2021/01/07 08:05:26;;;;;;;15.63;11.70;;;3.90;90.00;;;;;;5026655;28;20520;-58
2021/01/07 08:07:53;;;;;;;19.63;11.23;;;3.90;90.00;;;;;;5042036;28;20488;-56
2021/01/07 08:10:18;;;;;;;25.23;11.07;;;3.90;90.00;;;;;;5046800;28;20168;-56
2021/01/07 08:12:44;;;;;;;17.88;11.65;;;3.90;90.00;;;;;;5029848;28;20388;-57
2021/01/07 08:15:10;;;;;;;22.38;11.68;;;3.90;90.10;;;;;;5029745;28;20049;-57
2021/01/07 08:17:35;;;;;;;17.23;12.35;;;3.90;90.00;;;;;;5028838;28;20091;-57
2021/01/07 08:20:01;;;;;;;19.00;11.57;;;3.90;90.10;;;;;;5037494;28;20033;-58
2021/01/07 08:22:27;;;;;;;21.52;11.95;;;3.90;90.10;;;;;;5049807;28;20467;-59
2021/01/07 08:24:55;;;;;;;15.05;10.50;;;3.90;90.10;;;;;;5047800;28;20013;-56
2021/01/07 08:27:22;;;;;;;23.85;12.23;;;3.90;90.10;;;;;;5032412;28;20017;-56
2021/01/07 08:29:50;;;;;;;18.05;11.30;;;3.90;90.10;;;;;;5029628;28;20040;-56
2021/01/07 08:32:18;;;;;;;20.80;11.43;;;3.90;90.10;;;;;;5049312;28;20016;-56
2021/01/07 08:34:44;;;;;;;18.02;11.57;;;3.90;90.10;;;;;;5029252;28;20055;-57
2021/01/07 08:37:10;;;;;;;21.85;12.95;;;3.90;90.10;;;;;;5030093;28;20033;-57
2021/01/07 08:39:37;;;;;;;19.05;11.90;;;3.90;90.10;;;;;;5035507;28;20026;-57
2021/01/07 08:42:03;;;;;;;25.63;12.27;;;3.90;90.10;;;;;;5026471;28;20024;-56
2021/01/07 08:44:28;;;;;;;18.40;12.30;;;3.90;90.10;;;;;;5027388;28;20079;-57
2021/01/07 08:46:54;;;;;;;21.17;12.15;;;3.90;90.10;;;;;;5033485;28;20098;-57
2021/01/07 08:49:20;;;;;;;26.95;12.82;;;3.90;90.10;;;;;;5044809;28;20526;-58
2021/01/07 08:51:46;;;;;;;24.35;12.48;;;3.90;90.40;;;;;;5047264;28;20473;-61
2021/01/07 08:54:16;;;;;;;22.30;12.93;;;3.90;90.10;;;;;;5034603;28;20033;-57
2021/01/07 08:56:43;;;;;;;21.10;13.23;;;4.00;90.10;;;;;;5044581;28;20025;-56
2021/01/07 08:59:33;;;;;;;32.45;12.65;;;3.90;90.10;;;;;;5040284;28;20028;-58
2021/01/07 09:02:17;;;;;;;36.22;13.38;;;4.00;90.10;;;;;;5030067;28;20025;-56
2021/01/07 09:04:46;;;;;;;26.15;12.52;;;4.00;90.10;;;;;;5031465;28;20032;-57
2021/01/07 09:07:14;;;;;;;24.35;13.75;;;4.00;90.10;;;;;;5025411;28;20021;-56
2021/01/07 09:09:41;;;;;;;24.65;14.07;;;4.00;90.00;;;;;;5041323;28;20067;-57
2021/01/07 09:12:15;;;;;;;24.00;12.93;;;4.00;90.00;;;;;;5040611;28;20404;-56
2021/01/07 09:14:53;;;;;;;33.83;13.23;;;4.00;90.00;;;;;;5026504;28;20029;-57
2021/01/07 09:17:21;;;;;;;21.13;12.88;;;4.00;90.00;;;;;;5028307;28;20397;-57
2021/01/07 09:19:47;;;;;;;26.13;13.65;;;4.10;90.00;;;;;;5034741;28;20044;-56
2021/01/07 09:22:19;;;;;;;26.10;13.73;;;4.10;90.00;;;;;;5013822;28;20056;-57
2021/01/07 09:24:45;;;;;;;24.08;13.18;;;4.10;90.00;;;;;;5047817;28;20107;-56
2021/01/07 09:27:15;;;;;;;24.85;13.32;;;4.10;90.00;;;;;;5045940;28;20139;-56
2021/01/07 09:29:40;;;;;;;26.45;13.93;;;4.10;90.10;;;;;;5048186;28;20043;-56
2021/01/07 09:32:07;;;;;;;19.02;13.38;;;4.00;90.00;;;;;;5046817;28;20026;-58
2021/01/07 09:34:33;;;;;;;25.88;14.10;;;4.10;90.10;;;;;;5042781;28;20075;-58
2021/01/07 09:37:03;;;;;;;23.77;13.20;;;4.10;90.10;;;;;;5036400;28;20053;-58
2021/01/07 09:39:28;;;;;;;23.27;13.75;;;4.10;90.10;;;;;;5029940;28;20502;-57
2021/01/07 09:41:54;;;;;;;28.83;13.45;;;4.00;90.00;;;;;;5045844;28;20026;-56
2021/01/07 09:44:19;;;;;;;25.67;13.77;;;4.10;90.00;;;;;;5050981;28;20021;-56
2021/01/07 09:46:45;;;;;;;28.40;13.57;;;4.10;90.00;;;;;;5020485;28;20119;-57
2021/01/07 09:49:10;;;;;;;26.42;14.32;;;4.10;90.00;;;;;;5024603;28;20025;-57
2021/01/07 09:51:36;;;;;;;24.10;13.55;;;4.10;90.00;;;;;;5036356;28;20048;-58
2021/01/07 09:54:01;;;;;;;26.77;14.23;;;4.10;90.00;;;;;;5044025;28;20420;-58
2021/01/07 09:56:27;;;;;;;23.70;13.63;;;4.10;90.00;;;;;;5031337;28;20488;-56
2021/01/07 09:58:52;;;;;;;22.25;14.07;;;4.10;89.90;;;;;;5043000;28;20040;-55
2021/01/07 10:01:18;;;;;;;20.88;13.88;;;4.10;89.90;;;;;;5041151;28;20052;-56
2021/01/07 10:03:44;;;;;;;19.48;12.98;;;4.10;89.80;;;;;;5045431;28;20107;-57
2021/01/07 10:06:10;;;;;;;21.38;13.95;;;4.10;89.80;;;;;;5029660;28;20026;-56
2021/01/07 10:08:35;;;;;;;21.70;12.95;;;4.10;89.70;;;;;;5039688;28;20029;-58
2021/01/07 10:11:01;;;;;;;28.60;13.55;;;4.10;90.10;;;;;;5033960;28;20060;-57
2021/01/07 10:13:26;;;;;;;26.58;12.30;;;4.10;89.60;;;;;;5034645;28;20051;-57
2021/01/07 10:15:52;;;;;;;25.05;12.70;;;4.20;89.60;;;;;;5037834;28;20266;-58
2021/01/07 10:18:18;;;;;;;24.25;13.25;;;4.20;89.70;;;;;;5042748;28;20111;-59
2021/01/07 10:20:43;;;;;;;19.55;11.82;;;4.20;89.60;;;;;;5048549;28;20066;-57
2021/01/07 10:23:10;;;;;;;23.63;13.57;;;4.20;89.50;;;;;;5040844;28;20036;-56
2021/01/07 10:25:36;;;;;;;25.15;12.73;;;4.20;89.40;;;;;;5018008;28;20018;-56
2021/01/07 10:28:01;;;;;;;25.38;13.50;;;4.20;89.50;;;;;;5044452;28;20037;-58
2021/01/07 10:30:27;;;;;;;18.15;12.73;;;4.20;89.50;;;;;;5022544;28;20040;-57
2021/01/07 10:32:53;;;;;;;28.40;13.32;;;4.20;89.50;;;;;;5035137;28;20037;-58
2021/01/07 10:35:21;;;;;;;25.20;14.57;;;4.20;89.50;;;;;;5060079;28;20060;-58
2021/01/07 10:37:47;;;;;;;20.92;13.90;;;4.30;89.60;;;;;;5027433;28;20024;-57
2021/01/07 10:40:14;;;;;;;28.42;13.82;;;4.30;89.60;;;;;;5028333;28;20547;-58
2021/01/07 10:42:39;;;;;;;29.80;14.15;;;4.20;89.50;;;;;;5015980;28;20504;-56
2021/01/07 10:45:05;;;;;;;23.27;13.65;;;4.30;89.60;;;;;;5034936;28;20029;-56
2021/01/07 10:47:38;;;;;;;21.83;13.05;;;4.30;89.60;;;;;;5026634;28;20040;-56
2021/01/07 10:50:04;;;;;;;31.13;14.82;;;4.30;89.60;;;;;;5019145;28;20033;-57
2021/01/07 10:52:43;;;;;;;23.95;13.52;;;4.30;89.60;;;;;;5040874;28;20040;-59
2021/01/07 10:55:13;;;;;;;25.90;13.90;;;4.30;89.60;;;;;;5046835;28;20033;-57
2021/01/07 10:57:57;;;;;;;25.33;14.05;;;4.30;89.60;;;;;;5041682;28;20025;-58
2021/01/07 11:00:53;;;;;;;21.70;13.52;;;4.30;89.60;;;;;;5041747;28;20099;-59
2021/01/07 11:03:47;;;;;;;22.13;13.27;;;4.30;89.60;;;;;;5009793;28;20031;-57
2021/01/07 11:06:12;;;;;;;25.48;13.70;;;4.30;89.50;;;;;;5038050;28;20041;-58
2021/01/07 11:09:00;;;;;;;28.75;13.90;;;4.30;89.50;;;;;;5044965;28;20044;-60
2021/01/07 11:11:29;;;;;;;30.08;14.45;;;4.30;89.40;;;;;;5030469;28;20018;-56
2021/01/07 11:13:56;;;;;;;23.75;12.93;;;4.40;89.50;;;;;;5040226;28;20083;-59
2021/01/07 11:16:36;;;;;;;27.08;14.27;;;4.40;89.30;;;;;;5046142;28;20460;-58
2021/01/07 11:19:07;;;;;;;30.92;13.93;;;4.50;89.20;;;;;;5036036;28;20087;-59
2021/01/07 11:21:32;;;;;;;21.48;13.25;;;4.40;89.00;;;;;;5044683;28;20648;-56
2021/01/07 11:23:59;;;;;;;23.85;13.13;;;4.40;89.10;;;;;;5035245;28;20132;-67
2021/01/07 11:26:28;;;;;;;22.10;12.82;;;4.40;89.10;;;;;;5028228;28;20111;-59
2021/01/07 11:28:53;;;;;;;21.10;12.40;;;4.50;89.10;;;;;;4998217;28;20342;-58
2021/01/07 11:31:19;;;;;;;24.63;13.23;;;4.50;88.90;;;;;;5050256;28;20373;-57
2021/01/07 11:33:45;;;;;;;22.23;13.02;;;4.40;88.80;;;;;;5036970;28;20107;-60
2021/01/07 11:36:12;;;;;;;18.95;12.85;;;4.40;88.80;;;;;;5027485;28;20028;-59
2021/01/07 11:38:48;;;;;;;19.58;12.50;;;4.50;88.80;;;;;;5023758;28;20061;-57
2021/01/07 11:41:51;;;;;;;20.75;12.65;;;4.50;88.60;;;;;;5041010;28;20033;-57
2021/01/07 11:44:37;;;;;;;22.70;12.27;;;4.50;88.60;;;;;;5045189;28;20178;-58
2021/01/07 11:47:08;;;;;;;23.10;12.75;;;4.50;88.60;;;;;;5015017;28;20034;-56
2021/01/07 11:49:38;;;;;;;18.40;11.50;;;4.50;88.40;;;;;;5030000;28;20492;-58
2021/01/07 11:52:04;;;;;;;17.02;12.00;;;4.50;88.30;;;;;;5041286;28;20477;-58
2021/01/07 11:54:29;;;;;;;23.13;12.35;;;4.50;88.40;;;;;;5026053;28;20026;-58
2021/01/07 11:56:55;;;;;;;20.05;12.18;;;4.50;88.30;;;;;;5012735;28;20044;-58
2021/01/07 11:59:20;;;;;;;14.93;11.85;;;4.50;88.30;;;;;;5005928;28;20021;-56
2021/01/07 12:01:46;;;;;;;20.95;12.23;;;4.50;88.20;;;;;;5025066;28;20883;-58
2021/01/07 12:04:12;;;;;;;21.02;11.65;;;4.60;88.30;;;;;;5025206;28;20037;-56
2021/01/07 12:06:38;;;;;;;21.95;11.73;;;4.60;88.00;;;;;;5032971;28;20036;-56
2021/01/07 12:09:17;;;;;;;22.73;12.05;;;4.60;87.90;;;;;;5049175;28;20568;-57
2021/01/07 12:11:48;;;;;;;24.83;12.68;;;4.60;87.80;;;;;;5023447;28;20477;-58
2021/01/07 12:14:17;;;;;;;21.10;11.73;;;4.60;88.50;;;;;;5046210;28;20219;-57
2021/01/07 12:16:50;;;;;;;16.77;11.40;;;4.60;87.90;;;;;;5041496;28;20090;-61
2021/01/07 12:19:15;;;;;;;25.17;11.70;;;4.60;87.90;;;;;;5028562;28;20025;-57
2021/01/07 12:21:41;;;;;;;17.30;11.38;;;4.60;87.70;;;;;;5045437;28;20521;-62
2021/01/07 12:24:08;;;;;;;19.40;11.55;;;4.70;87.70;;;;;;5017764;28;20044;-56
2021/01/07 12:26:33;;;;;;;16.60;11.38;;;4.70;87.50;;;;;;5027942;28;20014;-57
2021/01/07 12:28:59;;;;;;;23.58;11.73;;;4.70;87.50;;;;;;5046120;28;20036;-57
2021/01/07 12:31:24;;;;;;;21.50;11.15;;;4.70;87.50;;;;;;5026724;28;20380;-56
2021/01/07 12:34:02;;;;;;;19.30;12.18;;;4.70;87.50;;;;;;5042972;28;20416;-57
2021/01/07 12:36:38;;;;;;;18.50;11.40;;;4.70;87.50;;;;;;5013821;28;20051;-57
2021/01/07 12:39:07;;;;;;;19.90;11.68;;;4.70;87.60;;;;;;5047442;28;20048;-56